Time;durP1;ratioP1;P1;durP2;ratioP2;P2;SDS_P1;SDS_P2;PMS_P1;PMS_P2;Temp;Humidity;BMP_temperature;BMP_pressure;BME280_temperature;BME280_humidity;BME280_pressure;Samples;Min_cycle;Max_cycle;Signal;HPM_P1;HPM_P2
2023/10/14 00:01:53;;;;;;;1.47;0.90;;;20.40;98.20;;;;;;4998629;28;20506;-77
2023/10/14 00:04:26;;;;;;;1.50;1.23;;;20.40;98.20;;;;;;5010789;28;20472;-78
2023/10/14 00:06:54;;;;;;;1.50;1.03;;;20.40;98.20;;;;;;5000900;28;21266;-80
2023/10/14 00:09:22;;;;;;;1.50;1.13;;;20.40;98.20;;;;;;5007540;28;20460;-80
2023/10/14 00:11:54;;;;;;;1.47;1.00;;;20.40;98.20;;;;;;5001296;28;20482;-81
2023/10/14 00:14:23;;;;;;;1.43;0.90;;;20.40;98.20;;;;;;5009349;28;20460;-79
2023/10/14 00:16:51;;;;;;;1.43;0.90;;;20.30;98.20;;;;;;4997769;28;20475;-75
2023/10/14 00:19:19;;;;;;;2.00;1.10;;;20.20;98.20;;;;;;5008809;28;20457;-77
2023/10/14 00:21:48;;;;;;;1.77;1.67;;;20.10;98.20;;;;;;4996565;28;20563;-77
2023/10/14 00:24:25;;;;;;;1.60;1.10;;;20.00;98.20;;;;;;5009625;28;20471;-78
2023/10/14 00:26:52;;;;;;;1.70;1.17;;;19.90;98.20;;;;;;4996397;28;20475;-77
2023/10/14 00:29:20;;;;;;;1.50;1.10;;;19.70;98.20;;;;;;5006856;28;21596;-75
2023/10/14 00:31:49;;;;;;;1.50;1.30;;;19.60;98.20;;;;;;4997529;28;20531;-79
2023/10/14 00:34:21;;;;;;;1.47;0.90;;;19.40;98.20;;;;;;5011714;28;20464;-79
2023/10/14 00:36:48;;;;;;;1.50;0.90;;;19.20;98.20;;;;;;5002616;28;20498;-78
2023/10/14 00:39:16;;;;;;;1.50;0.90;;;19.10;98.20;;;;;;5015613;28;20860;-82
2023/10/14 00:41:44;;;;;;;1.50;0.90;;;18.90;98.20;;;;;;5007173;28;20487;-79
2023/10/14 00:44:11;;;;;;;1.50;1.00;;;18.90;98.20;;;;;;5016764;28;20496;-80
2023/10/14 00:46:42;;;;;;;1.50;0.90;;;18.80;98.20;;;;;;5007122;28;20511;-81
2023/10/14 00:49:11;;;;;;;1.50;1.00;;;18.70;98.20;;;;;;5018600;28;20475;-79
2023/10/14 00:51:43;;;;;;;1.50;0.90;;;18.70;98.20;;;;;;5011051;28;20487;-81
2023/10/14 00:54:12;;;;;;;1.60;1.10;;;18.70;98.20;;;;;;5019977;28;20468;-79
2023/10/14 00:56:41;;;;;;;1.50;0.90;;;18.60;98.20;;;;;;5005596;28;20794;-80
2023/10/14 00:59:09;;;;;;;1.50;1.00;;;18.60;98.20;;;;;;5015465;28;20482;-79
2023/10/14 01:01:50;;;;;;;1.50;1.10;;;18.60;98.20;;;;;;5005521;28;20503;-80
2023/10/14 01:04:19;;;;;;;1.50;0.90;;;18.60;98.20;;;;;;5016772;28;20491;-79
2023/10/14 01:07:02;;;;;;;1.50;0.90;;;18.50;98.20;;;;;;5007102;28;20508;-80
2023/10/14 01:09:41;;;;;;;1.50;1.00;;;18.50;98.20;;;;;;5005671;28;20518;-80
2023/10/14 01:12:16;;;;;;;1.50;0.90;;;18.50;98.20;;;;;;5005876;28;20475;-79
2023/10/14 01:14:43;;;;;;;1.50;0.90;;;18.50;98.20;;;;;;5017355;28;20467;-79
2023/10/14 01:17:12;;;;;;;1.83;1.63;;;18.50;98.20;;;;;;5003621;28;20638;-79
2023/10/14 01:19:38;;;;;;;1.70;1.37;;;18.50;98.20;;;;;;5016104;28;20674;-81
2023/10/14 01:22:13;;;;;;;1.50;0.90;;;18.50;98.20;;;;;;5005683;28;20475;-79
2023/10/14 01:24:41;;;;;;;1.80;1.40;;;18.50;98.20;;;;;;5014866;28;20463;-80
2023/10/14 01:27:10;;;;;;;1.50;1.00;;;18.50;98.20;;;;;;5006373;28;20501;-79
2023/10/14 01:29:40;;;;;;;1.60;1.30;;;18.50;98.20;;;;;;5013145;28;20464;-80
2023/10/14 01:32:36;;;;;;;1.50;0.90;;;18.50;98.20;;;;;;5006566;28;20557;-80
2023/10/14 01:35:13;;;;;;;1.50;0.90;;;18.50;98.20;;;;;;5014514;28;20676;-78
2023/10/14 01:37:44;;;;;;;1.87;1.53;;;18.50;98.20;;;;;;5005594;28;21143;-79
2023/10/14 01:40:24;;;;;;;1.50;0.90;;;18.50;98.20;;;;;;5016532;28;20463;-80
2023/10/14 01:42:56;;;;;;;1.50;0.90;;;18.40;98.20;;;;;;5003897;28;20602;-78
2023/10/14 01:45:24;;;;;;;1.50;0.90;;;18.30;98.20;;;;;;5020493;28;20541;-79
2023/10/14 01:48:05;;;;;;;1.50;0.90;;;18.30;98.20;;;;;;5011373;28;20479;-82
2023/10/14 01:50:37;;;;;;;1.50;0.93;;;18.20;98.20;;;;;;5051996;22;20498;-81
2023/10/14 01:53:10;;;;;;;1.50;0.90;;;18.10;98.20;;;;;;5023824;28;20556;-80
2023/10/14 01:55:37;;;;;;;1.70;1.40;;;18.10;98.20;;;;;;5042612;28;20473;-80
2023/10/14 01:58:10;;;;;;;1.50;1.00;;;18.10;98.20;;;;;;5023589;28;20471;-76
2023/10/14 02:00:39;;;;;;;1.50;1.00;;;18.00;98.20;;;;;;5039824;28;20482;-78
2023/10/14 02:03:07;;;;;;;1.50;0.90;;;18.00;98.20;;;;;;5027256;28;20486;-78
2023/10/14 02:05:39;;;;;;;1.50;1.00;;;17.90;98.20;;;;;;5045005;28;20462;-78
2023/10/14 02:08:13;;;;;;;1.50;0.90;;;17.90;98.20;;;;;;5032168;28;20501;-79
2023/10/14 02:10:46;;;;;;;1.50;0.90;;;17.80;98.20;;;;;;5039824;28;21003;-78
2023/10/14 02:13:14;;;;;;;1.50;0.90;;;17.70;98.20;;;;;;5015059;28;20500;-79
2023/10/14 02:15:46;;;;;;;1.50;0.90;;;17.40;98.20;;;;;;5042180;28;20470;-78
2023/10/14 02:18:13;;;;;;;1.50;1.00;;;17.10;98.20;;;;;;5009824;28;20479;-79
2023/10/14 02:20:56;;;;;;;1.50;1.00;;;16.90;98.20;;;;;;5040379;28;20478;-79
2023/10/14 02:23:25;;;;;;;1.50;0.90;;;16.70;98.20;;;;;;5019811;28;20559;-78
2023/10/14 02:25:56;;;;;;;1.50;1.00;;;16.50;98.20;;;;;;5035736;28;20493;-78
2023/10/14 02:28:22;;;;;;;1.50;1.00;;;16.30;98.20;;;;;;5036216;28;20514;-78
2023/10/14 02:30:51;;;;;;;1.50;0.90;;;16.20;98.20;;;;;;5031096;28;20484;-79
2023/10/14 02:33:18;;;;;;;1.50;1.00;;;16.10;98.20;;;;;;5034490;28;20517;-79
2023/10/14 02:35:45;;;;;;;1.50;1.00;;;16.00;98.20;;;;;;5045554;28;20937;-78
2023/10/14 02:38:12;;;;;;;1.50;1.00;;;15.90;98.20;;;;;;5014157;28;21032;-78
2023/10/14 02:40:40;;;;;;;1.50;0.97;;;15.80;98.20;;;;;;5041057;28;21193;-78
2023/10/14 02:43:07;;;;;;;1.50;0.90;;;15.80;98.20;;;;;;5024063;28;20479;-78
2023/10/14 02:45:39;;;;;;;1.50;1.00;;;15.70;98.20;;;;;;5035646;28;20472;-77
2023/10/14 02:48:06;;;;;;;1.50;0.90;;;15.70;98.20;;;;;;5021989;28;20475;-78
2023/10/14 02:50:33;;;;;;;1.50;0.90;;;15.70;98.20;;;;;;5044470;28;20521;-76
2023/10/14 02:53:06;;;;;;;1.50;0.90;;;15.60;98.20;;;;;;5029511;28;20490;-77
2023/10/14 02:58:20;;;;;;;1.50;1.00;;;15.60;98.20;;;;;;5012624;28;20834;-77
2023/10/14 03:00:49;;;;;;;1.50;1.00;;;15.60;98.20;;;;;;5039424;28;20876;-77
2023/10/14 03:03:16;;;;;;;1.50;1.00;;;15.60;98.20;;;;;;5033707;28;20508;-77
2023/10/14 03:05:52;;;;;;;1.50;1.00;;;15.60;98.20;;;;;;5039953;28;20463;-77
2023/10/14 03:08:19;;;;;;;1.50;1.00;;;15.70;98.20;;;;;;5006392;28;20529;-78
2023/10/14 03:10:53;;;;;;;1.50;1.00;;;15.70;98.20;;;;;;5034032;28;20486;-77
2023/10/14 03:13:22;;;;;;;1.50;1.00;;;15.60;98.20;;;;;;5016217;28;20507;-78
2023/10/14 03:15:52;;;;;;;1.50;1.00;;;15.60;98.20;;;;;;5027901;28;20462;-77
2023/10/14 03:18:20;;;;;;;1.50;1.00;;;15.60;98.20;;;;;;5029069;28;20471;-77
2023/10/14 03:20:58;;;;;;;1.50;1.00;;;15.60;98.20;;;;;;5032182;28;20981;-78
2023/10/14 03:23:27;;;;;;;1.50;1.00;;;15.50;98.20;;;;;;5035373;28;20521;-77
2023/10/14 03:26:03;;;;;;;1.50;1.00;;;15.50;98.20;;;;;;5024124;28;20458;-77
2023/10/14 03:28:31;;;;;;;1.57;1.00;;;15.40;98.20;;;;;;5034258;28;20490;-77
2023/10/14 03:31:01;;;;;;;1.50;0.90;;;15.30;98.20;;;;;;5021006;28;20501;-78
2023/10/14 03:33:29;;;;;;;1.57;1.00;;;15.20;98.20;;;;;;5034709;28;20469;-77
2023/10/14 03:36:00;;;;;;;1.53;1.00;;;15.10;98.20;;;;;;5025085;28;20486;-78
2023/10/14 03:38:33;;;;;;;1.57;1.00;;;15.00;98.20;;;;;;5030291;28;20883;-77
2023/10/14 03:41:04;;;;;;;1.57;1.00;;;14.90;98.20;;;;;;5027727;28;20475;-78
2023/10/14 03:43:43;;;;;;;1.50;1.00;;;14.90;98.20;;;;;;5033451;28;20463;-77
2023/10/14 03:46:12;;;;;;;1.50;1.00;;;14.80;98.20;;;;;;5019957;28;20785;-78
2023/10/14 03:48:47;;;;;;;1.53;1.00;;;14.80;98.20;;;;;;5036410;28;20486;-78
2023/10/14 03:51:22;;;;;;;1.50;1.00;;;14.70;98.20;;;;;;5023072;28;20478;-78
2023/10/14 03:53:52;;;;;;;1.53;1.00;;;14.60;98.20;;;;;;5032075;28;20545;-78
2023/10/14 03:56:21;;;;;;;1.50;1.00;;;14.50;98.20;;;;;;5022606;28;20876;-78
2023/10/14 03:58:49;;;;;;;1.50;0.90;;;14.30;98.20;;;;;;5038254;28;20832;-78
2023/10/14 04:01:22;;;;;;;1.50;1.00;;;14.30;98.20;;;;;;5024117;28;20483;-78
2023/10/14 04:03:52;;;;;;;1.50;1.00;;;14.20;98.20;;;;;;5034228;28;20462;-78
2023/10/14 04:06:20;;;;;;;1.50;0.97;;;14.20;98.20;;;;;;5026876;28;20506;-78
2023/10/14 04:08:48;;;;;;;1.50;1.00;;;14.20;98.20;;;;;;5037039;28;21005;-78
2023/10/14 04:11:17;;;;;;;1.50;1.00;;;14.20;98.20;;;;;;5022576;28;20491;-78
2023/10/14 04:13:58;;;;;;;1.53;1.00;;;14.10;98.20;;;;;;5035663;28;20455;-78
2023/10/14 04:16:28;;;;;;;1.53;1.00;;;14.10;98.20;;;;;;5026891;28;20478;-79
2023/10/14 04:19:02;;;;;;;1.57;1.00;;;14.10;98.20;;;;;;5032280;28;20478;-78
2023/10/14 04:21:36;;;;;;;1.50;1.00;;;14.10;98.20;;;;;;5020106;28;20705;-79
2023/10/14 04:24:18;;;;;;;1.53;1.00;;;14.10;98.20;;;;;;5030106;28;20467;-79
2023/10/14 04:26:48;;;;;;;1.50;1.00;;;14.10;98.20;;;;;;5019172;28;20493;-78
2023/10/14 04:29:34;;;;;;;1.50;1.00;;;14.10;98.20;;;;;;5032330;28;20755;-79
2023/10/14 04:32:14;;;;;;;1.50;1.00;;;14.20;98.20;;;;;;5023536;28;20493;-78
2023/10/14 04:34:42;;;;;;;1.50;1.00;;;14.20;98.20;;;;;;5036514;28;20969;-78
2023/10/14 04:37:09;;;;;;;1.57;1.07;;;14.20;98.20;;;;;;5019226;28;20491;-79
2023/10/14 04:39:43;;;;;;;1.50;1.00;;;14.20;98.20;;;;;;5036969;28;20459;-79
2023/10/14 04:42:27;;;;;;;1.50;1.00;;;14.20;98.20;;;;;;5015338;28;20535;-79
2023/10/14 04:44:59;;;;;;;1.57;1.00;;;14.20;98.20;;;;;;5030194;28;20746;-78
2023/10/14 04:47:36;;;;;;;1.50;1.00;;;14.20;98.20;;;;;;5016002;28;20475;-78
2023/10/14 04:50:10;;;;;;;1.53;1.00;;;14.20;98.20;;;;;;5028229;28;20454;-78
2023/10/14 04:52:38;;;;;;;1.53;1.00;;;14.20;98.20;;;;;;5020663;28;20482;-79
2023/10/14 04:55:21;;;;;;;1.53;1.00;;;14.20;98.20;;;;;;5038748;28;21478;-79
2023/10/14 04:58:05;;;;;;;1.50;1.10;;;14.10;98.20;;;;;;5025832;28;20481;-79
2023/10/14 05:00:38;;;;;;;1.50;1.00;;;14.10;98.20;;;;;;5020740;28;20888;-79
2023/10/14 05:03:09;;;;;;;1.50;1.00;;;14.10;98.20;;;;;;5001176;28;20471;-76
2023/10/14 05:05:38;;;;;;;1.50;1.00;;;14.00;98.20;;;;;;5018252;28;20461;-79
2023/10/14 05:08:06;;;;;;;1.50;1.00;;;14.00;98.20;;;;;;5007544;28;20485;-78
2023/10/14 05:10:33;;;;;;;1.50;1.00;;;14.00;98.20;;;;;;5019641;28;20487;-78
2023/10/14 05:13:01;;;;;;;1.53;1.00;;;14.00;98.20;;;;;;5011568;28;20491;-77
2023/10/14 05:15:28;;;;;;;1.50;1.00;;;13.90;98.20;;;;;;5021832;28;20834;-79
2023/10/14 05:18:00;;;;;;;1.50;1.00;;;13.90;98.20;;;;;;5008934;28;20521;-78
2023/10/14 05:20:47;;;;;;;1.50;1.00;;;13.80;98.20;;;;;;5021598;28;20486;-79
2023/10/14 05:23:19;;;;;;;1.50;1.00;;;13.70;98.20;;;;;;4993298;28;20488;-79
2023/10/14 05:25:48;;;;;;;1.50;1.00;;;13.70;98.20;;;;;;5021840;28;20675;-78
2023/10/14 05:28:16;;;;;;;1.50;1.00;;;13.70;98.20;;;;;;4998966;28;20486;-79
2023/10/14 05:30:48;;;;;;;1.50;1.00;;;13.60;98.20;;;;;;5022811;28;20949;-78
2023/10/14 05:33:15;;;;;;;1.50;1.00;;;13.60;98.20;;;;;;5009947;28;20490;-78
2023/10/14 05:35:44;;;;;;;1.50;1.00;;;13.60;98.20;;;;;;5021881;28;20839;-78
2023/10/14 05:38:11;;;;;;;1.50;1.00;;;13.50;98.20;;;;;;5016691;28;20485;-78
2023/10/14 05:40:39;;;;;;;1.50;1.00;;;13.50;98.20;;;;;;5021373;28;21513;-78
2023/10/14 05:43:06;;;;;;;1.50;0.93;;;13.50;98.20;;;;;;5013714;28;20959;-78
2023/10/14 05:45:35;;;;;;;1.50;1.00;;;13.50;98.20;;;;;;5021316;28;20861;-78
2023/10/14 05:48:03;;;;;;;1.50;1.00;;;13.40;98.20;;;;;;5008942;28;20518;-76
2023/10/14 05:50:30;;;;;;;1.50;1.00;;;13.40;98.20;;;;;;5020351;28;20553;-78
2023/10/14 05:52:59;;;;;;;1.50;1.00;;;13.30;98.20;;;;;;5008834;28;20479;-79
2023/10/14 05:55:29;;;;;;;1.60;1.10;;;13.30;98.20;;;;;;5022820;28;20464;-78
2023/10/14 05:57:58;;;;;;;1.50;1.10;;;13.30;98.20;;;;;;5010644;28;20510;-79
2023/10/14 06:00:25;;;;;;;1.60;1.10;;;13.20;98.20;;;;;;5021005;28;20852;-78
2023/10/14 06:02:53;;;;;;;1.50;1.00;;;13.20;98.20;;;;;;5008581;28;21053;-80
2023/10/14 06:05:21;;;;;;;1.50;1.00;;;13.20;98.20;;;;;;5026523;28;20844;-79
2023/10/14 06:07:48;;;;;;;1.50;1.10;;;13.10;98.20;;;;;;5007762;28;20487;-78
2023/10/14 06:10:22;;;;;;;1.60;1.10;;;13.10;98.20;;;;;;5021069;28;20784;-78
2023/10/14 06:12:51;;;;;;;1.50;1.10;;;13.10;98.20;;;;;;5011437;28;20690;-78
2023/10/14 06:15:19;;;;;;;1.50;1.00;;;13.10;98.20;;;;;;5023442;28;20467;-78
2023/10/14 06:17:47;;;;;;;1.53;1.10;;;13.10;98.20;;;;;;5008343;28;20479;-77
2023/10/14 06:20:15;;;;;;;1.50;1.03;;;13.00;98.20;;;;;;5019846;28;20507;-78
2023/10/14 06:22:43;;;;;;;1.57;1.10;;;13.00;98.20;;;;;;5013496;28;20498;-79
2023/10/14 06:25:15;;;;;;;1.57;1.10;;;13.00;98.20;;;;;;5024144;28;20471;-79
2023/10/14 06:27:45;;;;;;;1.50;1.00;;;13.00;98.20;;;;;;5010672;28;20478;-78
2023/10/14 06:30:20;;;;;;;1.50;1.10;;;13.00;98.20;;;;;;5019086;28;21006;-78
2023/10/14 06:32:48;;;;;;;2.30;2.10;;;13.10;98.20;;;;;;5009592;28;20479;-76
2023/10/14 06:35:15;;;;;;;1.53;1.00;;;13.10;98.20;;;;;;5018584;28;20471;-79
2023/10/14 06:37:45;;;;;;;1.50;1.00;;;13.10;98.20;;;;;;5007978;28;20495;-79
2023/10/14 06:40:13;;;;;;;1.53;1.10;;;13.10;98.20;;;;;;5024388;28;20555;-78
2023/10/14 06:42:43;;;;;;;1.50;1.00;;;13.00;98.20;;;;;;5009762;28;20534;-77
2023/10/14 06:45:14;;;;;;;1.50;1.03;;;13.00;98.20;;;;;;5019629;28;20973;-76
2023/10/14 06:47:46;;;;;;;1.50;1.00;;;13.00;98.20;;;;;;5013548;28;20484;-76
2023/10/14 06:50:13;;;;;;;1.53;1.10;;;13.00;98.20;;;;;;5019261;28;20495;-77
2023/10/14 06:52:41;;;;;;;1.50;1.00;;;13.00;98.20;;;;;;5008692;28;20480;-76
2023/10/14 06:55:08;;;;;;;1.50;1.00;;;13.00;98.20;;;;;;5022146;28;20463;-78
2023/10/14 06:57:36;;;;;;;1.57;1.07;;;13.00;98.20;;;;;;5006422;28;20652;-79
2023/10/14 07:00:11;;;;;;;1.50;1.00;;;13.00;98.20;;;;;;5026135;28;20841;-79
2023/10/14 07:02:40;;;;;;;1.50;0.93;;;13.00;98.20;;;;;;5007701;28;21240;-77
2023/10/14 07:05:09;;;;;;;1.50;1.00;;;13.10;98.20;;;;;;5019208;28;20464;-77
2023/10/14 07:07:37;;;;;;;1.50;1.00;;;13.20;98.20;;;;;;5013535;28;20560;-78
2023/10/14 07:10:05;;;;;;;1.50;1.00;;;13.20;98.20;;;;;;5024161;28;20491;-77
2023/10/14 07:12:32;;;;;;;1.57;1.10;;;13.30;98.20;;;;;;5011612;28;20481;-79
2023/10/14 07:14:59;;;;;;;1.50;1.00;;;13.30;98.20;;;;;;5022803;28;20463;-78
2023/10/14 07:17:27;;;;;;;1.50;1.20;;;13.30;98.20;;;;;;5009742;28;20483;-78
2023/10/14 07:19:56;;;;;;;1.50;1.00;;;13.40;98.20;;;;;;5020721;28;20498;-78
2023/10/14 07:22:22;;;;;;;1.50;1.00;;;13.40;98.20;;;;;;5012187;28;20490;-79
2023/10/14 07:24:50;;;;;;;1.50;1.00;;;13.50;98.20;;;;;;5025239;28;20464;-78
2023/10/14 07:27:18;;;;;;;1.50;1.00;;;13.50;98.20;;;;;;5009322;28;21009;-79
2023/10/14 07:29:45;;;;;;;1.53;1.00;;;13.60;98.20;;;;;;5021356;28;21071;-78
2023/10/14 07:32:15;;;;;;;1.50;1.00;;;13.70;98.20;;;;;;5007615;28;20491;-78
2023/10/14 07:34:41;;;;;;;1.50;1.00;;;13.80;98.20;;;;;;5021434;28;20486;-80
2023/10/14 07:37:13;;;;;;;1.50;1.00;;;13.80;98.20;;;;;;5015433;28;20487;-80
2023/10/14 07:39:40;;;;;;;1.53;1.00;;;13.90;98.20;;;;;;5025502;28;20462;-79
2023/10/14 07:42:13;;;;;;;1.50;1.00;;;13.90;98.20;;;;;;5010822;28;20513;-79
2023/10/14 07:44:40;;;;;;;1.57;1.10;;;13.90;98.20;;;;;;5025173;28;20462;-81
2023/10/14 07:47:07;;;;;;;1.50;1.00;;;14.00;98.20;;;;;;5013947;28;20559;-80
2023/10/14 07:49:34;;;;;;;1.50;1.00;;;14.00;98.20;;;;;;5024976;28;21051;-80
2023/10/14 07:52:01;;;;;;;1.50;1.00;;;14.10;98.20;;;;;;5009080;28;20480;-81
2023/10/14 07:54:30;;;;;;;1.50;1.00;;;14.20;98.20;;;;;;5027474;28;20675;-80
2023/10/14 07:56:57;;;;;;;1.50;1.00;;;14.30;98.20;;;;;;5013729;28;20509;-80
2023/10/14 07:59:24;;;;;;;1.50;1.00;;;14.40;98.20;;;;;;5024409;28;20470;-80
2023/10/14 08:01:52;;;;;;;1.50;1.00;;;14.40;98.20;;;;;;5009392;28;20494;-80
2023/10/14 08:04:20;;;;;;;1.50;0.90;;;14.50;98.20;;;;;;5026524;28;20478;-79
2023/10/14 08:06:47;;;;;;;1.50;1.00;;;14.50;98.20;;;;;;5013279;28;21084;-79
2023/10/14 08:09:23;;;;;;;1.50;1.00;;;14.60;98.20;;;;;;5024253;28;20486;-82
2023/10/14 08:11:54;;;;;;;1.50;1.00;;;14.60;98.20;;;;;;5014371;28;20487;-80
2023/10/14 08:14:21;;;;;;;1.50;0.90;;;14.70;98.20;;;;;;5022014;28;20474;-79
2023/10/14 08:16:48;;;;;;;1.50;1.00;;;14.70;98.20;;;;;;5010944;28;20479;-80
2023/10/14 08:19:16;;;;;;;1.50;1.00;;;14.70;98.20;;;;;;5024374;28;20467;-82
2023/10/14 08:21:44;;;;;;;1.50;1.00;;;14.80;98.20;;;;;;5015145;28;20860;-79
2023/10/14 08:24:14;;;;;;;1.50;1.00;;;14.90;98.20;;;;;;5024212;28;20459;-80
2023/10/14 08:26:41;;;;;;;1.50;0.90;;;15.00;98.20;;;;;;5016221;28;20924;-82
2023/10/14 08:29:12;;;;;;;1.57;1.00;;;15.10;98.20;;;;;;5030886;28;20626;-83
2023/10/14 08:31:42;;;;;;;1.50;1.00;;;15.10;98.20;;;;;;5016210;28;20544;-81
2023/10/14 08:34:10;;;;;;;1.50;1.00;;;15.10;98.20;;;;;;5027622;28;20487;-82
2023/10/14 08:36:42;;;;;;;1.50;1.00;;;15.20;98.20;;;;;;5014814;28;20484;-82
2023/10/14 08:39:10;;;;;;;1.60;1.20;;;15.20;98.20;;;;;;5022684;28;20459;-79
2023/10/14 08:41:37;;;;;;;1.50;1.00;;;15.30;98.20;;;;;;5014033;28;20492;-79
2023/10/14 08:44:08;;;;;;;1.53;1.00;;;15.20;98.20;;;;;;5019262;28;20467;-80
2023/10/14 08:46:39;;;;;;;1.50;0.93;;;15.30;98.20;;;;;;5013353;28;20499;-80
2023/10/14 08:49:12;;;;;;;1.53;1.00;;;15.30;98.20;;;;;;5014920;28;20584;-80
2023/10/14 08:51:42;;;;;;;1.53;1.00;;;15.40;98.20;;;;;;5011771;28;21119;-79
2023/10/14 08:54:11;;;;;;;1.60;1.00;;;15.50;98.20;;;;;;5022269;28;20528;-81
2023/10/14 08:56:39;;;;;;;1.50;1.00;;;15.70;98.20;;;;;;5016495;28;20479;-82
2023/10/14 08:59:07;;;;;;;1.57;1.00;;;15.70;98.20;;;;;;5030126;28;20483;-81
2023/10/14 09:01:37;;;;;;;1.50;1.00;;;15.80;98.20;;;;;;5012498;28;20488;-80
2023/10/14 09:04:08;;;;;;;1.50;0.90;;;15.90;98.20;;;;;;5022663;28;20495;-80
2023/10/14 09:06:35;;;;;;;1.50;1.00;;;16.00;98.20;;;;;;5008306;28;20749;-81
2023/10/14 09:09:02;;;;;;;1.50;0.90;;;16.10;98.20;;;;;;5017465;28;20464;-81
2023/10/14 09:11:33;;;;;;;1.50;0.90;;;16.20;98.20;;;;;;5009055;28;20499;-80
2023/10/14 09:14:05;;;;;;;1.60;1.10;;;16.30;98.20;;;;;;5023399;28;20538;-80
2023/10/14 09:16:34;;;;;;;1.50;0.90;;;16.40;98.20;;;;;;5007750;28;20562;-80
2023/10/14 09:19:05;;;;;;;1.50;0.90;;;16.40;98.20;;;;;;5018075;28;20527;-79
2023/10/14 09:21:33;;;;;;;1.50;0.90;;;16.30;98.20;;;;;;5011775;28;20909;-78
2023/10/14 09:24:07;;;;;;;1.50;1.00;;;16.20;98.20;;;;;;5018946;28;20495;-80
2023/10/14 09:26:38;;;;;;;1.50;0.90;;;16.10;98.20;;;;;;5009631;28;20489;-79
2023/10/14 09:29:09;;;;;;;1.60;1.23;;;16.00;98.20;;;;;;5012859;28;20861;-80
2023/10/14 09:31:38;;;;;;;1.50;1.00;;;15.90;98.20;;;;;;5012495;28;20485;-79
2023/10/14 09:34:08;;;;;;;1.50;0.90;;;15.80;98.20;;;;;;5025177;28;20468;-80
2023/10/14 09:36:43;;;;;;;1.50;1.00;;;15.90;98.20;;;;;;5011152;28;21392;-80
2023/10/14 09:39:15;;;;;;;1.50;1.00;;;16.10;98.20;;;;;;5024906;28;20505;-80
2023/10/14 09:41:46;;;;;;;1.50;0.90;;;16.20;98.20;;;;;;5013267;28;20527;-81
2023/10/14 09:44:15;;;;;;;1.50;0.90;;;16.40;98.20;;;;;;5020285;28;20464;-81
2023/10/14 09:46:42;;;;;;;1.50;0.90;;;16.50;98.20;;;;;;5013266;28;21038;-78
2023/10/14 09:49:11;;;;;;;1.50;0.90;;;16.70;98.20;;;;;;5016449;28;20463;-80
2023/10/14 09:51:40;;;;;;;1.50;0.90;;;16.90;98.20;;;;;;5002887;28;20483;-81
2023/10/14 09:54:09;;;;;;;1.50;0.90;;;17.10;98.20;;;;;;5011867;28;20472;-79
2023/10/14 09:56:40;;;;;;;1.50;1.00;;;17.20;98.20;;;;;;5011160;28;20674;-80
2023/10/14 09:59:09;;;;;;;1.57;1.00;;;17.20;98.20;;;;;;5026166;28;20493;-81
2023/10/14 10:01:36;;;;;;;1.50;0.90;;;17.30;98.20;;;;;;5014397;28;20542;-80
2023/10/14 10:04:10;;;;;;;1.50;0.90;;;17.40;98.20;;;;;;5030171;28;20459;-83
2023/10/14 10:06:49;;;;;;;1.50;0.90;;;17.60;98.20;;;;;;5012164;28;20522;-81
2023/10/14 10:09:34;;;;;;;1.50;0.93;;;17.60;98.20;;;;;;5026049;28;20490;-80
2023/10/14 10:12:04;;;;;;;1.50;1.00;;;17.70;98.20;;;;;;5015823;28;21023;-81
2023/10/14 10:14:38;;;;;;;1.50;0.90;;;17.80;98.20;;;;;;5022272;28;20497;-80
2023/10/14 10:17:08;;;;;;;1.50;0.90;;;17.70;98.20;;;;;;5021292;28;20479;-79
2023/10/14 10:20:01;;;;;;;1.50;0.90;;;18.00;98.20;;;;;;5027104;28;20463;-80
2023/10/14 10:22:41;;;;;;;1.50;0.90;;;18.00;96.50;;;;;;5012052;28;21040;-79
2023/10/14 10:25:11;;;;;;;1.53;1.00;;;17.90;96.10;;;;;;5030119;28;20471;-80
2023/10/14 10:27:38;;;;;;;1.50;1.00;;;17.70;96.70;;;;;;5020936;28;20472;-81
2023/10/14 10:30:08;;;;;;;1.50;0.90;;;17.60;96.30;;;;;;5030643;28;20554;-80
2023/10/14 10:32:35;;;;;;;1.50;0.90;;;17.40;96.40;;;;;;5013117;28;20946;-82
2023/10/14 10:35:13;;;;;;;1.50;0.90;;;17.20;97.80;;;;;;5023809;28;20530;-80
2023/10/14 10:37:46;;;;;;;1.50;0.90;;;17.10;96.90;;;;;;5012514;28;20588;-80
2023/10/14 10:40:15;;;;;;;1.50;0.90;;;16.90;97.70;;;;;;5020732;28;20545;-81
2023/10/14 10:42:45;;;;;;;1.50;0.97;;;16.70;97.10;;;;;;5006809;28;20487;-80
2023/10/14 10:45:20;;;;;;;1.50;1.00;;;16.60;97.20;;;;;;5028777;28;20470;-78
2023/10/14 10:47:54;;;;;;;1.50;0.90;;;16.50;97.00;;;;;;5009821;28;20575;-79
2023/10/14 10:50:22;;;;;;;1.70;1.53;;;16.20;98.20;;;;;;5022032;28;21938;-80
2023/10/14 10:53:19;;;;;;;1.50;0.90;;;16.10;98.20;;;;;;5017280;28;20482;-82
2023/10/14 10:55:48;;;;;;;1.50;1.00;;;16.10;98.20;;;;;;5020093;28;20925;-80
2023/10/14 10:58:16;;;;;;;1.50;0.90;;;16.10;98.20;;;;;;5014646;28;20475;-82
2023/10/14 11:00:46;;;;;;;1.50;1.00;;;16.10;98.20;;;;;;5019377;28;20667;-82
2023/10/14 11:03:14;;;;;;;1.50;0.90;;;16.10;98.20;;;;;;4996007;28;20478;-81
2023/10/14 11:05:42;;;;;;;1.50;0.90;;;16.20;98.20;;;;;;5017986;28;20550;-80
2023/10/14 11:08:10;;;;;;;1.50;0.90;;;16.30;98.20;;;;;;5012611;28;20506;-80
2023/10/14 11:10:42;;;;;;;1.50;0.90;;;16.30;98.20;;;;;;5024901;28;21161;-80
2023/10/14 11:13:11;;;;;;;1.50;0.90;;;16.50;98.20;;;;;;5007904;28;20551;-80
2023/10/14 11:15:39;;;;;;;1.50;0.90;;;16.80;98.20;;;;;;5025147;28;20558;-80
2023/10/14 11:18:09;;;;;;;1.50;1.00;;;17.20;98.20;;;;;;5004771;28;20484;-80
2023/10/14 11:20:40;;;;;;;1.50;0.90;;;17.50;98.20;;;;;;5015088;28;20539;-82
2023/10/14 11:23:09;;;;;;;1.50;0.90;;;17.80;97.10;;;;;;5009059;28;20508;-81
2023/10/14 11:25:41;;;;;;;1.50;1.00;;;17.90;95.90;;;;;;5025657;28;20703;-80
2023/10/14 11:28:10;;;;;;;1.50;1.00;;;18.00;95.90;;;;;;5009628;28;20490;-80
2023/10/14 11:30:41;;;;;;;1.50;0.90;;;18.10;94.40;;;;;;5022262;28;20496;-83
2023/10/14 11:33:11;;;;;;;1.50;0.90;;;18.00;93.40;;;;;;5004321;28;20526;-80
2023/10/14 11:35:39;;;;;;;1.50;0.90;;;17.70;93.30;;;;;;5023170;28;20476;-84
2023/10/14 11:38:08;;;;;;;1.50;0.90;;;17.50;93.00;;;;;;5002976;28;20480;-83
2023/10/14 11:40:36;;;;;;;3.20;2.90;;;17.40;94.30;;;;;;5019659;28;21009;-80
2023/10/14 11:43:07;;;;;;;1.50;0.90;;;17.30;93.90;;;;;;5008576;28;20476;-80
2023/10/14 11:45:40;;;;;;;1.50;1.00;;;17.30;92.90;;;;;;5016213;28;20852;-80
2023/10/14 11:48:10;;;;;;;1.50;1.00;;;17.50;93.80;;;;;;5001365;28;21145;-79
2023/10/14 11:50:38;;;;;;;1.50;0.90;;;17.70;92.80;;;;;;5017246;28;20496;-80
2023/10/14 11:53:07;;;;;;;1.50;0.90;;;17.80;91.80;;;;;;5005882;28;20484;-80
2023/10/14 11:55:34;;;;;;;1.50;0.90;;;17.90;92.70;;;;;;5022469;28;20824;-81
2023/10/14 11:58:01;;;;;;;1.50;0.90;;;18.10;92.00;;;;;;5003826;28;20779;-81
2023/10/14 12:00:30;;;;;;;1.50;0.90;;;18.20;91.20;;;;;;5020854;28;20498;-79
2023/10/14 12:02:57;;;;;;;1.50;0.90;;;18.30;90.60;;;;;;5003414;28;20582;-79
2023/10/14 12:05:24;;;;;;;1.50;0.97;;;18.50;91.00;;;;;;5016796;28;20941;-78
2023/10/14 12:07:51;;;;;;;1.50;0.90;;;18.60;90.30;;;;;;5005979;28;20479;-77
2023/10/14 12:10:22;;;;;;;1.50;0.90;;;18.70;89.00;;;;;;5015132;28;20618;-78
2023/10/14 12:12:53;;;;;;;1.50;1.00;;;18.80;88.10;;;;;;5003110;28;21064;-78
2023/10/14 12:15:20;;;;;;;1.50;0.90;;;18.80;87.30;;;;;;5013975;28;20546;-78
2023/10/14 12:17:49;;;;;;;1.50;0.90;;;18.90;87.20;;;;;;4999801;28;20475;-77
2023/10/14 12:20:16;;;;;;;1.50;0.90;;;19.00;86.70;;;;;;5007604;28;20579;-78
2023/10/14 12:22:47;;;;;;;1.50;1.00;;;18.90;83.60;;;;;;5005254;28;20547;-78
2023/10/14 12:25:17;;;;;;;1.50;0.90;;;18.80;84.50;;;;;;5014400;28;20466;-80
2023/10/14 12:27:44;;;;;;;1.50;1.00;;;18.50;83.80;;;;;;5005915;28;20573;-80
2023/10/14 12:30:28;;;;;;;1.47;0.90;;;18.30;83.70;;;;;;5014360;28;20495;-78
2023/10/14 12:32:57;;;;;;;1.50;1.00;;;18.10;85.50;;;;;;5007840;28;20488;-79
2023/10/14 12:35:28;;;;;;;1.43;1.00;;;17.90;86.20;;;;;;5011925;28;20463;-81
2023/10/14 12:37:55;;;;;;;1.50;0.90;;;17.70;87.60;;;;;;5000975;28;20506;-80
2023/10/14 12:40:24;;;;;;;1.50;1.00;;;17.70;88.20;;;;;;5011842;28;20527;-78
2023/10/14 12:42:54;;;;;;;1.50;1.00;;;17.70;89.90;;;;;;5001454;28;20487;-78
2023/10/14 12:45:25;;;;;;;1.50;0.90;;;17.80;89.30;;;;;;5017397;28;21021;-78
2023/10/14 12:47:56;;;;;;;1.50;0.90;;;18.00;90.00;;;;;;5009582;28;20518;-77
2023/10/14 12:50:25;;;;;;;1.50;1.00;;;18.20;90.00;;;;;;5018047;28;20920;-77
2023/10/14 12:52:58;;;;;;;1.50;0.90;;;18.30;88.40;;;;;;5002997;28;20476;-77
2023/10/14 12:55:26;;;;;;;1.47;0.90;;;18.40;89.30;;;;;;5013789;28;20998;-79
2023/10/14 12:57:55;;;;;;;1.50;0.90;;;18.50;89.00;;;;;;5002736;28;20503;-79
2023/10/14 13:00:29;;;;;;;1.47;0.90;;;18.60;89.00;;;;;;5011749;28;20519;-79
2023/10/14 13:02:56;;;;;;;1.50;1.00;;;18.70;87.50;;;;;;5004410;28;20525;-78
2023/10/14 13:05:25;;;;;;;1.50;0.90;;;18.80;87.30;;;;;;5013365;28;20570;-78
2023/10/14 13:07:54;;;;;;;1.47;0.90;;;18.90;86.70;;;;;;5002064;28;20575;-78